Hallam, Nebraska
Current Conditions -  °F | °C
As of 12:15 AM on Sunday 26 Oct 2014 (Local Time) from KBIE Reporting Station
Clear Clear  
Wind Chill: 15°   Ceiling: Unl
Heat Index: 15°   Visibility: 10mi
Dew Point:   Wind: 7mph
Humidity: 65%   Direction: 80°E
Pressure: 29.97"   Gusts: NA
Location:  40.54°N, 96.79°W
Report Text: KBIE 260515Z AUTO 08006KT 10SM CLR 15/08 A2997 RMK AO2 T01450079
Loading
Personal Weather Stations






























Interactive Weather Map
Tropical Storm Tracking
New forecast layout! Learn more

10-Day Weather Forecast

Advertisements
Track Severe Weather on mobile